Time;durP1;ratioP1;P1;durP2;ratioP2;P2;SDS_P1;SDS_P2;PMS_P1;PMS_P2;Temp;Humidity;BMP_temperature;BMP_pressure;BME280_temperature;BME280_humidity;BME280_pressure;Samples;Min_cycle;Max_cycle;Signal;HPM_P1;HPM_P2
2021/12/15 00:00:57;;;;;;;27.70;18.20;;;8.60;99.90;;;;;;4999336;28;20472;-52
2021/12/15 00:03:23;;;;;;;44.00;20.63;;;8.40;99.90;;;;;;5000556;28;20543;-51
2021/12/15 00:05:50;;;;;;;31.30;20.57;;;8.50;99.90;;;;;;5003026;28;20648;-49
2021/12/15 00:08:16;;;;;;;32.60;19.53;;;8.60;99.90;;;;;;5001210;28;22498;-49
2021/12/15 00:10:43;;;;;;;31.10;17.50;;;8.60;99.90;;;;;;4999400;28;20436;-51
2021/12/15 00:13:12;;;;;;;37.07;20.47;;;8.50;99.90;;;;;;5001780;28;20555;-48
2021/12/15 00:15:38;;;;;;;36.10;20.77;;;8.30;99.90;;;;;;5002266;28;20444;-50
2021/12/15 00:18:04;;;;;;;39.40;21.50;;;8.20;99.90;;;;;;5001189;28;20425;-50
2021/12/15 00:20:30;;;;;;;29.30;17.70;;;8.30;99.90;;;;;;5000891;28;20438;-49
2021/12/15 00:22:57;;;;;;;37.00;21.17;;;8.30;99.90;;;;;;5001534;28;21099;-52
2021/12/15 00:25:26;;;;;;;35.70;22.40;;;8.20;99.90;;;;;;5000540;28;20878;-51
2021/12/15 00:27:52;;;;;;;37.53;20.53;;;8.20;99.90;;;;;;4999448;28;21057;-52
2021/12/15 00:30:18;;;;;;;30.73;19.20;;;8.10;99.90;;;;;;5000590;28;20432;-51
2021/12/15 00:32:44;;;;;;;36.80;20.30;;;8.20;99.90;;;;;;5001688;28;21480;-53
2021/12/15 00:35:10;;;;;;;36.13;19.03;;;8.20;99.90;;;;;;4992897;28;20590;-49
2021/12/15 00:37:37;;;;;;;35.10;18.90;;;8.20;99.90;;;;;;4999995;28;20268;-51
2021/12/15 00:40:06;;;;;;;37.47;19.70;;;8.40;99.90;;;;;;4999464;28;20443;-48
2021/12/15 00:42:32;;;;;;;35.27;20.57;;;8.40;99.90;;;;;;5000825;28;20467;-49
2021/12/15 00:44:58;;;;;;;31.40;19.37;;;8.50;99.90;;;;;;5000762;28;20517;-49
2021/12/15 00:47:23;;;;;;;35.53;18.80;;;8.60;99.90;;;;;;5000322;28;20193;-52
2021/12/15 00:49:51;;;;;;;31.93;19.73;;;8.70;99.90;;;;;;5015765;28;20193;-53
2021/12/15 00:52:16;;;;;;;31.47;18.40;;;8.50;99.90;;;;;;4999994;28;20215;-52
2021/12/15 00:54:42;;;;;;;35.53;19.10;;;8.20;99.90;;;;;;4998396;28;20937;-51
2021/12/15 00:57:08;;;;;;;30.60;18.37;;;8.10;99.90;;;;;;4998862;28;20669;-51
2021/12/15 00:59:34;;;;;;;33.30;19.13;;;8.00;99.90;;;;;;4996669;28;20181;-52
2021/12/15 01:02:01;;;;;;;39.80;21.97;;;8.20;99.90;;;;;;4999929;28;20518;-50
2021/12/15 01:04:29;;;;;;;42.87;21.83;;;8.50;99.90;;;;;;4998193;28;20451;-49
2021/12/15 01:06:58;;;;;;;31.83;18.60;;;8.50;99.90;;;;;;5000430;28;20478;-52
2021/12/15 01:09:42;;;;;;;33.93;19.53;;;8.40;99.90;;;;;;5000808;28;21194;-51
2021/12/15 01:12:20;;;;;;;31.27;19.90;;;8.30;99.90;;;;;;4999065;28;20495;-49
2021/12/15 01:20:31;;;;;;;33.27;19.87;;;8.10;99.90;;;;;;4999336;28;20442;-51
2021/12/15 01:23:01;;;;;;;34.70;19.83;;;8.00;99.90;;;;;;4997988;28;20463;-52
2021/12/15 01:25:40;;;;;;;29.27;19.40;;;8.00;99.90;;;;;;4999732;28;20425;-51
2021/12/15 01:28:07;;;;;;;31.00;19.90;;;7.90;99.90;;;;;;4997952;28;20437;-52
2021/12/15 01:30:35;;;;;;;36.43;19.73;;;7.90;99.90;;;;;;4999827;28;20947;-49
2021/12/15 01:33:04;;;;;;;35.80;20.50;;;7.90;99.90;;;;;;4998788;28;20970;-52
2021/12/15 01:35:31;;;;;;;36.73;19.37;;;8.00;99.90;;;;;;4997745;28;20436;-51
2021/12/15 01:37:57;;;;;;;36.80;21.10;;;8.20;99.90;;;;;;4999465;28;21211;-52
2021/12/15 01:40:35;;;;;;;32.97;21.37;;;8.10;99.90;;;;;;4999106;28;20459;-53
2021/12/15 01:43:14;;;;;;;34.73;19.60;;;8.00;99.90;;;;;;4996579;28;20594;-51
2021/12/15 01:48:24;;;;;;;34.23;20.30;;;8.10;99.90;;;;;;4999014;28;20964;-52
2021/12/15 01:50:51;;;;;;;33.03;20.53;;;8.00;99.90;;;;;;4998836;28;20436;-49
2021/12/15 01:53:18;;;;;;;35.93;18.93;;;8.10;99.90;;;;;;4996051;28;20213;-50
2021/12/15 01:55:45;;;;;;;42.97;21.87;;;8.30;99.90;;;;;;5002947;28;20653;-51
2021/12/15 01:58:10;;;;;;;36.43;20.00;;;8.40;99.90;;;;;;5003761;28;20872;-51
2021/12/15 02:00:42;;;;;;;30.80;19.90;;;8.40;99.90;;;;;;5000548;28;20516;-49
2021/12/15 02:03:08;;;;;;;36.33;19.90;;;8.20;99.90;;;;;;5003003;28;20287;-51
2021/12/15 02:05:35;;;;;;;36.03;21.30;;;8.10;99.90;;;;;;5003820;28;20515;-51
2021/12/15 02:08:01;;;;;;;32.30;20.10;;;8.40;99.90;;;;;;5002172;28;20276;-50
2021/12/15 02:10:32;;;;;;;35.03;19.23;;;8.60;99.90;;;;;;5017479;28;20482;-49
2021/12/15 02:13:00;;;;;;;38.70;19.93;;;8.70;99.90;;;;;;5033929;28;20467;-47
2021/12/15 02:15:31;;;;;;;36.00;19.73;;;8.70;99.90;;;;;;5002420;28;20428;-51
2021/12/15 02:17:58;;;;;;;34.73;19.63;;;8.60;99.90;;;;;;5005178;28;20426;-51
2021/12/15 02:20:27;;;;;;;37.27;20.17;;;8.60;99.90;;;;;;5000644;28;20871;-50
2021/12/15 02:22:53;;;;;;;37.60;21.40;;;8.60;99.90;;;;;;5004907;28;20459;-50
2021/12/15 02:25:18;;;;;;;33.90;19.60;;;8.80;99.90;;;;;;4999799;28;20455;-49
2021/12/15 02:27:44;;;;;;;33.70;19.70;;;8.80;99.90;;;;;;5002595;28;20181;-48
2021/12/15 02:30:25;;;;;;;32.40;19.10;;;8.80;99.90;;;;;;5001558;28;20219;-53
2021/12/15 02:33:35;;;;;;;31.00;18.57;;;8.60;99.90;;;;;;5002237;28;20244;-50
2021/12/15 02:38:44;;;;;;;33.43;18.97;;;8.80;99.90;;;;;;5001814;28;20948;-49
2021/12/15 02:41:20;;;;;;;31.20;20.27;;;8.60;99.90;;;;;;5000706;28;20458;-46
2021/12/15 02:43:50;;;;;;;36.53;19.10;;;8.70;99.90;;;;;;5001290;28;20546;-48
2021/12/15 02:46:16;;;;;;;38.37;20.73;;;8.80;99.90;;;;;;5003859;28;20523;-51
2021/12/15 02:48:42;;;;;;;37.13;19.73;;;8.90;99.90;;;;;;5001160;28;20814;-51
2021/12/15 02:51:08;;;;;;;32.67;20.27;;;8.90;99.90;;;;;;5002551;28;20459;-51
2021/12/15 02:53:34;;;;;;;33.90;18.47;;;8.60;99.90;;;;;;5001952;28;20474;-53
2021/12/15 02:56:00;;;;;;;36.43;18.60;;;8.50;99.90;;;;;;5001051;28;20933;-53
2021/12/15 02:58:32;;;;;;;31.50;19.93;;;8.60;99.90;;;;;;5002565;28;20256;-48
2021/12/15 03:01:03;;;;;;;33.23;19.37;;;8.50;99.90;;;;;;4999657;28;20231;-50
2021/12/15 03:06:15;;;;;;;39.30;20.87;;;8.00;99.90;;;;;;5001770;28;20441;-51
2021/12/15 03:16:40;;;;;;;32.27;18.60;;;8.00;99.90;;;;;;5000022;28;20975;-48
2021/12/15 03:19:06;;;;;;;33.60;19.67;;;8.10;99.90;;;;;;5000448;28;20436;-53
2021/12/15 03:21:31;;;;;;;36.73;20.80;;;8.30;99.90;;;;;;5003141;28;20447;-48
2021/12/15 03:24:14;;;;;;;42.60;20.73;;;8.10;99.90;;;;;;5002306;28;20215;-49
2021/12/15 03:26:48;;;;;;;31.10;19.40;;;8.40;99.90;;;;;;5002776;28;20354;-52
2021/12/15 03:37:26;;;;;;;36.20;19.40;;;8.90;99.90;;;;;;4999684;28;20448;-53
2021/12/15 03:40:19;;;;;;;33.10;19.70;;;8.60;99.90;;;;;;4999921;28;20459;-52
2021/12/15 03:42:48;;;;;;;38.60;20.30;;;8.30;99.90;;;;;;5001909;28;20459;-51
2021/12/15 03:45:22;;;;;;;44.27;23.97;;;8.20;99.90;;;;;;4999135;28;20448;-53
2021/12/15 03:47:50;;;;;;;37.40;20.27;;;8.30;99.90;;;;;;5002533;28;20467;-50
2021/12/15 03:50:19;;;;;;;36.90;20.20;;;8.10;99.90;;;;;;5001592;28;20442;-51
2021/12/15 03:52:48;;;;;;;36.60;20.63;;;8.10;99.90;;;;;;5002757;28;20502;-48
2021/12/15 03:55:21;;;;;;;37.83;21.40;;;7.90;99.90;;;;;;5001463;28;20814;-49
2021/12/15 03:57:47;;;;;;;38.70;20.47;;;7.90;99.90;;;;;;4999562;28;20528;-45
2021/12/15 04:00:14;;;;;;;45.07;21.20;;;7.90;99.90;;;;;;4998346;28;20526;-53
2021/12/15 04:02:40;;;;;;;43.57;19.83;;;8.10;99.90;;;;;;5000416;28;20209;-51
2021/12/15 04:05:09;;;;;;;38.17;21.50;;;8.20;99.90;;;;;;4999170;28;20811;-51
2021/12/15 04:07:37;;;;;;;42.20;20.90;;;8.40;99.90;;;;;;4999708;28;20462;-50
2021/12/15 04:10:06;;;;;;;40.90;21.13;;;8.40;99.90;;;;;;4999141;28;20963;-53
2021/12/15 04:12:31;;;;;;;38.37;20.93;;;8.30;99.90;;;;;;4999529;28;20482;-49
2021/12/15 04:15:18;;;;;;;34.13;19.97;;;8.30;99.90;;;;;;4997672;28;20444;-50
2021/12/15 04:17:43;;;;;;;37.63;21.20;;;8.30;99.90;;;;;;4999239;28;20209;-51
2021/12/15 04:20:12;;;;;;;35.67;19.63;;;8.30;99.90;;;;;;4999811;28;20596;-53
2021/12/15 04:22:38;;;;;;;45.23;23.33;;;8.20;99.90;;;;;;4999485;28;20228;-48
2021/12/15 04:25:09;;;;;;;45.37;20.80;;;8.20;99.90;;;;;;4998775;28;20440;-50
2021/12/15 04:27:36;;;;;;;39.87;20.27;;;7.90;99.90;;;;;;5001020;28;20193;-48
2021/12/15 04:30:05;;;;;;;37.67;21.63;;;8.00;99.90;;;;;;4999089;28;20435;-49
2021/12/15 04:32:36;;;;;;;42.87;21.37;;;8.10;99.90;;;;;;4998317;28;20514;-48
2021/12/15 04:35:02;;;;;;;41.93;21.23;;;8.20;99.90;;;;;;5001516;28;20420;-50
2021/12/15 04:37:28;;;;;;;41.80;19.17;;;8.20;99.90;;;;;;5000381;28;20463;-52
2021/12/15 04:39:54;;;;;;;37.73;19.90;;;8.20;99.90;;;;;;4997641;28;20428;-52
2021/12/15 04:42:23;;;;;;;38.00;20.97;;;8.30;99.90;;;;;;5001129;28;20475;-52
2021/12/15 04:44:51;;;;;;;36.47;20.23;;;8.00;99.90;;;;;;5000530;28;20192;-48
2021/12/15 04:47:16;;;;;;;44.63;22.50;;;8.10;99.90;;;;;;4999746;28;20448;-48
2021/12/15 04:49:47;;;;;;;37.97;21.37;;;7.80;99.90;;;;;;4997984;28;20813;-52
2021/12/15 04:52:15;;;;;;;37.03;21.53;;;7.70;99.90;;;;;;5019009;28;21029;-50
2021/12/15 04:54:42;;;;;;;39.07;22.90;;;7.90;99.90;;;;;;4997677;28;20464;-51
2021/12/15 04:57:08;;;;;;;36.67;19.83;;;7.90;99.90;;;;;;4997489;28;20503;-49
2021/12/15 04:59:35;;;;;;;38.17;21.13;;;7.80;99.90;;;;;;4999847;28;20436;-50
2021/12/15 05:02:01;;;;;;;42.63;22.00;;;7.70;99.90;;;;;;4999137;28;20863;-51
2021/12/15 05:04:28;;;;;;;45.90;22.77;;;7.60;99.90;;;;;;4999131;28;20452;-50
2021/12/15 05:06:53;;;;;;;43.17;22.30;;;7.70;99.90;;;;;;5000887;28;20443;-54
2021/12/15 05:09:19;;;;;;;50.00;23.67;;;7.70;99.90;;;;;;4997695;28;20810;-51
2021/12/15 05:11:47;;;;;;;44.57;21.23;;;7.80;99.90;;;;;;5000745;28;20535;-47
2021/12/15 05:14:13;;;;;;;39.13;21.23;;;7.70;99.90;;;;;;5000572;28;20879;-52
2021/12/15 05:16:39;;;;;;;39.60;20.67;;;7.90;99.90;;;;;;4999137;28;20487;-52
2021/12/15 05:19:04;;;;;;;40.73;20.57;;;7.90;99.90;;;;;;5001692;28;20883;-52
2021/12/15 05:21:31;;;;;;;44.80;19.70;;;7.80;99.90;;;;;;4997624;28;20190;-51
2021/12/15 05:24:02;;;;;;;41.17;20.10;;;7.80;99.90;;;;;;5031632;28;20994;-47
2021/12/15 05:26:30;;;;;;;39.00;20.10;;;8.10;99.90;;;;;;4999042;28;20908;-50
2021/12/15 05:28:56;;;;;;;41.57;20.47;;;7.90;99.90;;;;;;5032231;28;20946;-49
2021/12/15 05:31:21;;;;;;;43.13;20.37;;;8.00;99.90;;;;;;4999628;28;20464;-49
2021/12/15 05:33:47;;;;;;;36.67;19.57;;;7.90;99.90;;;;;;4997705;28;20271;-52
2021/12/15 05:36:13;;;;;;;37.00;20.23;;;7.80;99.90;;;;;;5000978;28;20767;-50
2021/12/15 05:38:38;;;;;;;47.10;21.47;;;7.70;99.90;;;;;;4998825;28;20562;-50
2021/12/15 05:41:04;;;;;;;41.70;20.03;;;7.80;99.90;;;;;;4999283;28;20264;-49
2021/12/15 05:43:30;;;;;;;42.40;19.30;;;8.00;99.90;;;;;;4996173;28;20291;-52
2021/12/15 05:45:55;;;;;;;44.10;20.90;;;8.00;99.90;;;;;;4998996;28;20204;-48
2021/12/15 05:48:21;;;;;;;41.67;19.30;;;8.00;99.90;;;;;;4999291;28;20200;-51
2021/12/15 05:50:50;;;;;;;46.43;21.03;;;8.00;99.90;;;;;;4998087;28;20195;-51
2021/12/15 05:53:15;;;;;;;42.00;20.70;;;8.00;99.90;;;;;;4997912;28;20606;-48
2021/12/15 05:55:42;;;;;;;40.23;19.83;;;7.90;99.90;;;;;;4999196;28;20444;-52
2021/12/15 05:58:08;;;;;;;48.87;20.70;;;8.00;99.90;;;;;;4997034;28;20190;-49
2021/12/15 06:00:37;;;;;;;50.80;22.70;;;7.70;99.90;;;;;;4996813;28;20468;-49
2021/12/15 06:03:04;;;;;;;51.23;24.00;;;7.70;99.90;;;;;;4993555;28;20546;-50
2021/12/15 06:05:30;;;;;;;49.20;23.00;;;7.70;99.90;;;;;;4994920;28;20509;-49
2021/12/15 06:07:56;;;;;;;48.93;21.73;;;7.70;99.90;;;;;;4997855;28;21008;-52
2021/12/15 06:10:26;;;;;;;50.80;23.27;;;7.70;99.90;;;;;;4997933;28;20450;-52
2021/12/15 06:12:53;;;;;;;53.90;23.43;;;7.60;99.90;;;;;;4996589;28;20682;-51
2021/12/15 06:15:23;;;;;;;46.97;22.17;;;7.60;99.90;;;;;;4998263;28;20439;-51
2021/12/15 06:17:57;;;;;;;51.60;23.37;;;7.60;99.90;;;;;;4998608;28;20432;-51
2021/12/15 06:20:24;;;;;;;53.37;22.23;;;7.40;99.90;;;;;;4998754;28;20438;-50
2021/12/15 06:22:53;;;;;;;52.00;21.77;;;7.40;99.90;;;;;;4999593;28;20460;-51
2021/12/15 06:25:19;;;;;;;47.90;22.23;;;7.40;99.90;;;;;;4997942;28;20534;-52
2021/12/15 06:27:44;;;;;;;51.57;22.53;;;7.40;99.90;;;;;;4998299;28;20865;-52
2021/12/15 06:30:11;;;;;;;42.67;21.60;;;7.50;99.90;;;;;;4996749;28;20193;-51
2021/12/15 06:32:37;;;;;;;43.33;23.00;;;7.60;99.90;;;;;;4998892;28;20213;-52
2021/12/15 06:35:04;;;;;;;49.03;22.47;;;7.70;99.90;;;;;;4998303;28;20472;-51
2021/12/15 06:37:30;;;;;;;47.73;21.83;;;7.70;99.90;;;;;;4997305;28;20449;-50
2021/12/15 06:39:56;;;;;;;60.93;25.90;;;7.60;99.90;;;;;;4998180;28;20436;-48
2021/12/15 06:42:22;;;;;;;53.00;22.70;;;7.60;99.90;;;;;;5001866;28;20221;-50
2021/12/15 06:44:48;;;;;;;64.20;26.60;;;7.60;99.90;;;;;;5003270;28;20193;-51
2021/12/15 06:47:33;;;;;;;66.37;26.03;;;7.60;99.90;;;;;;5003082;28;20193;-53
2021/12/15 06:58:17;;;;;;;65.77;25.00;;;8.00;99.90;;;;;;5001288;28;20427;-53
2021/12/15 07:00:49;;;;;;;70.37;27.00;;;8.20;99.90;;;;;;5001920;28;20457;-54
2021/12/15 07:03:17;;;;;;;71.33;26.30;;;8.30;99.90;;;;;;5002550;28;20861;-50
2021/12/15 07:05:43;;;;;;;71.17;27.10;;;8.20;99.90;;;;;;5001076;28;20570;-53
2021/12/15 07:08:11;;;;;;;71.77;27.17;;;8.10;99.90;;;;;;5003292;28;20520;-51
2021/12/15 07:10:40;;;;;;;72.57;27.70;;;7.70;99.90;;;;;;4998399;28;20821;-53
2021/12/15 07:13:07;;;;;;;69.03;27.70;;;7.70;99.90;;;;;;5001668;28;20905;-49
2021/12/15 07:15:34;;;;;;;60.57;23.90;;;8.00;99.90;;;;;;5002232;28;20515;-52
2021/12/15 07:18:04;;;;;;;57.67;23.07;;;8.20;99.90;;;;;;5001158;28;21008;-48
2021/12/15 07:20:40;;;;;;;59.03;23.90;;;8.10;99.90;;;;;;5001638;28;20440;-50
2021/12/15 07:23:09;;;;;;;68.20;27.97;;;7.70;99.90;;;;;;5001424;28;20543;-50
2021/12/15 07:25:38;;;;;;;60.67;23.87;;;7.90;99.90;;;;;;4999899;28;20527;-51
2021/12/15 07:28:05;;;;;;;64.77;25.20;;;7.90;99.90;;;;;;4991904;28;20460;-52
2021/12/15 07:30:31;;;;;;;60.57;23.63;;;8.00;99.90;;;;;;4999122;28;20972;-48
2021/12/15 07:32:58;;;;;;;54.20;23.40;;;8.00;99.90;;;;;;4997560;28;20487;-50
2021/12/15 07:35:25;;;;;;;65.63;26.23;;;8.10;99.90;;;;;;5000145;28;20525;-50
2021/12/15 07:37:51;;;;;;;66.30;25.93;;;8.10;99.90;;;;;;4999259;28;20953;-52
2021/12/15 07:40:21;;;;;;;66.53;26.13;;;8.10;99.90;;;;;;5000084;28;20527;-50
2021/12/15 07:43:11;;;;;;;73.37;25.50;;;8.10;99.90;;;;;;5001010;28;20458;-50
2021/12/15 07:45:46;;;;;;;68.10;24.90;;;7.90;99.90;;;;;;4999799;28;21018;-49
2021/12/15 07:48:15;;;;;;;72.27;23.80;;;8.00;99.90;;;;;;4998974;28;20432;-49
2021/12/15 07:50:45;;;;;;;68.33;25.37;;;8.30;99.90;;;;;;5027939;28;21129;-48
2021/12/15 07:53:12;;;;;;;71.53;26.80;;;8.30;99.90;;;;;;4996345;28;20483;-51
2021/12/15 07:55:39;;;;;;;62.63;23.23;;;8.10;99.90;;;;;;5002332;28;20451;-51
2021/12/15 07:58:06;;;;;;;59.27;25.27;;;8.30;99.90;;;;;;5013869;28;20447;-51
2021/12/15 08:00:34;;;;;;;58.03;24.47;;;8.20;99.90;;;;;;4998920;28;21180;-50
2021/12/15 08:03:00;;;;;;;57.83;23.90;;;8.30;99.90;;;;;;4999383;28;20546;-46
2021/12/15 08:05:27;;;;;;;58.07;23.63;;;8.30;99.90;;;;;;4997192;28;20452;-51
2021/12/15 08:07:53;;;;;;;55.60;21.83;;;8.50;99.90;;;;;;4998393;28;20272;-50
2021/12/15 08:10:18;;;;;;;43.83;22.90;;;8.70;99.90;;;;;;4996120;28;20547;-50
2021/12/15 08:12:46;;;;;;;38.37;21.07;;;8.60;99.90;;;;;;5000824;28;21013;-50
2021/12/15 08:15:13;;;;;;;41.57;22.07;;;8.80;99.90;;;;;;4998328;28;20432;-49
2021/12/15 08:17:42;;;;;;;50.37;22.53;;;8.80;99.90;;;;;;4999652;28;20521;-50
2021/12/15 08:20:11;;;;;;;44.30;22.23;;;9.00;99.90;;;;;;4996411;28;20521;-50
2021/12/15 08:22:38;;;;;;;46.40;23.03;;;9.00;99.90;;;;;;4999635;28;20456;-50
2021/12/15 08:25:09;;;;;;;45.20;21.13;;;8.80;99.90;;;;;;4998143;28;20458;-47
2021/12/15 08:27:35;;;;;;;43.87;20.17;;;9.00;99.90;;;;;;4997209;28;21003;-50
2021/12/15 08:30:04;;;;;;;43.60;18.77;;;9.10;99.90;;;;;;4997999;28;20447;-51
2021/12/15 08:32:29;;;;;;;39.63;20.70;;;9.10;99.90;;;;;;4998887;28;20886;-49
2021/12/15 08:34:55;;;;;;;37.77;19.67;;;9.20;99.90;;;;;;4996778;28;21024;-49
2021/12/15 08:37:20;;;;;;;36.10;19.23;;;9.20;99.90;;;;;;4997800;28;20212;-51
2021/12/15 08:39:46;;;;;;;43.03;19.10;;;9.30;99.90;;;;;;4995967;28;20189;-47
2021/12/15 08:42:13;;;;;;;38.40;20.40;;;9.30;99.90;;;;;;4998191;28;20213;-50
2021/12/15 08:44:39;;;;;;;33.23;19.67;;;9.20;99.90;;;;;;4997544;28;20220;-50
2021/12/15 08:47:06;;;;;;;36.93;20.43;;;9.20;99.90;;;;;;4998907;28;20440;-51
2021/12/15 08:49:32;;;;;;;37.90;20.73;;;9.20;99.90;;;;;;4997469;28;20454;-54
2021/12/15 08:51:58;;;;;;;34.63;19.50;;;9.20;99.90;;;;;;4996907;28;20835;-50
2021/12/15 08:54:25;;;;;;;38.23;19.67;;;9.10;99.90;;;;;;4999183;28;20851;-48
2021/12/15 08:56:52;;;;;;;31.00;20.43;;;9.20;99.90;;;;;;4999466;28;20448;-46
2021/12/15 08:59:19;;;;;;;32.37;20.20;;;9.20;99.90;;;;;;4997603;28;20503;-50
2021/12/15 09:01:46;;;;;;;32.93;18.37;;;9.30;99.90;;;;;;4999212;28;20428;-50
2021/12/15 09:04:13;;;;;;;35.73;19.80;;;9.40;99.90;;;;;;5012272;28;20451;-49
2021/12/15 09:06:40;;;;;;;32.83;20.30;;;9.50;99.90;;;;;;4999836;28;20458;-50
2021/12/15 09:09:08;;;;;;;36.43;20.57;;;9.50;99.90;;;;;;4998243;28;20814;-51
2021/12/15 09:11:34;;;;;;;39.73;22.40;;;9.40;99.90;;;;;;4999710;28;20451;-49
2021/12/15 09:14:02;;;;;;;34.47;19.17;;;9.40;99.90;;;;;;4997003;28;20566;-52
2021/12/15 09:16:30;;;;;;;32.70;18.80;;;9.50;99.90;;;;;;4995633;28;20439;-47
2021/12/15 09:18:56;;;;;;;36.73;19.90;;;9.40;99.90;;;;;;4998795;28;20859;-49
2021/12/15 09:21:25;;;;;;;36.10;19.40;;;9.40;99.90;;;;;;4995865;28;20490;-50
2021/12/15 09:23:51;;;;;;;26.77;17.67;;;9.40;99.90;;;;;;4995037;28;20463;-51
2021/12/15 09:26:17;;;;;;;32.33;20.20;;;9.40;99.90;;;;;;4995079;28;20999;-47
2021/12/15 09:28:43;;;;;;;32.30;18.20;;;9.40;99.90;;;;;;4995449;28;20239;-52
2021/12/15 09:31:10;;;;;;;30.87;19.30;;;9.50;99.90;;;;;;4997175;28;20449;-47
2021/12/15 09:33:38;;;;;;;33.47;17.90;;;9.40;99.90;;;;;;4997288;28;20205;-51
2021/12/15 09:36:05;;;;;;;31.97;17.90;;;9.40;99.90;;;;;;4994785;28;20436;-50
2021/12/15 09:38:32;;;;;;;34.33;18.33;;;9.50;99.90;;;;;;4996996;28;20505;-51
2021/12/15 09:41:01;;;;;;;35.00;18.77;;;9.60;99.90;;;;;;4997666;28;20456;-50
2021/12/15 09:43:30;;;;;;;30.43;18.80;;;9.50;99.90;;;;;;4999515;28;20551;-48
2021/12/15 09:46:05;;;;;;;33.43;18.47;;;9.60;99.90;;;;;;5000416;28;20455;-50
2021/12/15 09:57:04;;;;;;;27.60;16.70;;;9.70;99.90;;;;;;4997708;28;20960;-54
2021/12/15 10:19:28;;;;;;;30.60;15.20;;;9.90;99.90;;;;;;4997511;28;20451;-50
2021/12/15 10:22:05;;;;;;;24.07;15.73;;;9.80;99.90;;;;;;4988355;28;20454;-51
2021/12/15 10:24:47;;;;;;;23.27;14.20;;;9.90;99.90;;;;;;4985066;28;20454;-50
2021/12/15 10:27:33;;;;;;;26.47;13.50;;;10.00;99.90;;;;;;4999571;28;20859;-53
2021/12/15 10:30:25;;;;;;;19.57;11.70;;;9.90;99.90;;;;;;5000026;28;20526;-52
2021/12/15 10:33:07;;;;;;;13.60;9.83;;;9.90;99.90;;;;;;4995369;28;21181;-52
2021/12/15 10:35:38;;;;;;;19.17;10.50;;;9.80;99.90;;;;;;4999477;28;20438;-49
2021/12/15 10:38:18;;;;;;;17.27;9.50;;;10.10;99.90;;;;;;5002002;28;20963;-51
2021/12/15 10:40:44;;;;;;;12.40;8.30;;;10.30;99.90;;;;;;4996654;28;20526;-51
2021/12/15 10:43:10;;;;;;;12.53;8.80;;;10.50;99.90;;;;;;5001057;28;20456;-51
2021/12/15 10:45:46;;;;;;;12.80;8.80;;;10.50;99.90;;;;;;5003825;28;20726;-49
2021/12/15 10:48:23;;;;;;;13.33;8.03;;;10.60;99.90;;;;;;5002113;28;20833;-53
2021/12/15 10:50:50;;;;;;;12.10;7.50;;;10.60;99.90;;;;;;4999442;28;20441;-51
2021/12/15 10:53:30;;;;;;;11.00;7.90;;;10.70;99.90;;;;;;5002608;28;20464;-53
2021/12/15 10:55:56;;;;;;;9.20;7.20;;;10.70;99.90;;;;;;5001966;28;20436;-52
2021/12/15 10:58:34;;;;;;;10.47;6.67;;;10.80;99.90;;;;;;5000012;28;20463;-51
2021/12/15 11:01:02;;;;;;;11.07;6.87;;;10.80;99.90;;;;;;4998248;28;20680;-52
2021/12/15 11:03:38;;;;;;;9.67;6.10;;;10.70;99.90;;;;;;5003091;28;20522;-49
2021/12/15 11:06:23;;;;;;;7.80;6.50;;;10.70;99.90;;;;;;5000532;28;21130;-51
2021/12/15 11:09:08;;;;;;;7.80;6.90;;;10.60;99.90;;;;;;5001551;28;21091;-50
2021/12/15 11:11:34;;;;;;;9.90;6.23;;;10.50;99.90;;;;;;5000863;28;20443;-53
2021/12/15 11:13:59;;;;;;;9.03;6.90;;;10.50;99.90;;;;;;4998517;28;20480;-52
2021/12/15 11:16:30;;;;;;;10.03;7.03;;;10.50;99.90;;;;;;5001152;28;20650;-51
2021/12/15 11:18:58;;;;;;;9.57;6.80;;;10.50;99.90;;;;;;5004591;28;20208;-49
2021/12/15 11:21:31;;;;;;;7.90;6.70;;;10.50;99.90;;;;;;5001183;28;20965;-50
2021/12/15 11:23:57;;;;;;;7.50;5.90;;;10.50;99.90;;;;;;5001382;28;20480;-52
2021/12/15 11:26:23;;;;;;;7.80;4.87;;;10.30;99.90;;;;;;5002280;28;20805;-52
2021/12/15 11:28:51;;;;;;;7.93;5.50;;;10.40;99.90;;;;;;5001215;28;20188;-51
2021/12/15 11:31:24;;;;;;;8.00;5.10;;;10.50;99.90;;;;;;5002343;28;20231;-50
2021/12/15 11:34:02;;;;;;;5.23;4.47;;;10.50;99.90;;;;;;5001292;28;20526;-53
2021/12/15 11:36:33;;;;;;;6.10;4.43;;;10.50;99.90;;;;;;5001704;28;20431;-54
2021/12/15 11:39:09;;;;;;;7.30;5.00;;;10.40;99.90;;;;;;5003851;28;20436;-49
2021/12/15 11:41:47;;;;;;;6.53;4.83;;;10.50;99.90;;;;;;5002038;28;20444;-53
2021/12/15 11:44:17;;;;;;;4.87;4.27;;;10.60;99.90;;;;;;4997455;28;20444;-50
2021/12/15 11:46:48;;;;;;;7.60;5.53;;;10.60;99.90;;;;;;5001052;28;20523;-51
2021/12/15 11:49:17;;;;;;;8.60;5.90;;;10.60;99.90;;;;;;4999261;28;20439;-53
2021/12/15 11:52:03;;;;;;;8.30;5.93;;;10.30;99.90;;;;;;4999069;28;20464;-53
2021/12/15 11:54:30;;;;;;;7.10;5.80;;;10.30;99.90;;;;;;5032582;28;21003;-50
2021/12/15 11:57:01;;;;;;;7.80;5.70;;;10.30;99.90;;;;;;5000089;28;20470;-51
2021/12/15 11:59:26;;;;;;;10.30;7.40;;;10.30;99.90;;;;;;4998693;28;20436;-54
2021/12/15 12:02:03;;;;;;;9.60;7.40;;;10.50;99.90;;;;;;4999397;28;20513;-54
2021/12/15 12:04:52;;;;;;;11.57;8.80;;;10.40;99.90;;;;;;4998654;28;20268;-53
2021/12/15 12:07:54;;;;;;;12.80;7.73;;;10.30;99.90;;;;;;4998542;28;20490;-54
2021/12/15 12:10:32;;;;;;;10.90;7.37;;;10.30;99.90;;;;;;4993748;28;20444;-53
2021/12/15 12:13:08;;;;;;;12.07;8.40;;;10.30;99.90;;;;;;5001041;28;20460;-52
2021/12/15 12:15:38;;;;;;;12.10;8.70;;;10.40;99.90;;;;;;5002273;28;20424;-51
2021/12/15 12:18:13;;;;;;;9.20;7.77;;;10.30;99.90;;;;;;5000089;28;20950;-51
2021/12/15 12:20:43;;;;;;;12.63;8.60;;;10.30;99.90;;;;;;4994937;28;20440;-52
2021/12/15 12:23:12;;;;;;;11.03;7.60;;;10.40;99.90;;;;;;4997284;28;20463;-50
2021/12/15 12:25:42;;;;;;;8.77;7.20;;;10.40;99.90;;;;;;4998557;28;20492;-53
2021/12/15 12:28:17;;;;;;;12.23;6.33;;;10.50;99.90;;;;;;4994673;28;20445;-51
2021/12/15 12:30:48;;;;;;;8.03;5.80;;;10.50;99.90;;;;;;4997697;28;20479;-53
2021/12/15 12:33:16;;;;;;;8.57;6.07;;;10.40;99.90;;;;;;4999404;28;20822;-53
2021/12/15 12:35:46;;;;;;;8.73;6.53;;;10.50;99.90;;;;;;5000264;28;20551;-47
2021/12/15 12:38:21;;;;;;;8.80;6.60;;;10.30;99.90;;;;;;4994369;28;20905;-49
2021/12/15 12:40:49;;;;;;;7.90;6.17;;;10.20;99.90;;;;;;4998218;28;20519;-48
2021/12/15 12:43:22;;;;;;;8.47;6.30;;;10.30;99.90;;;;;;4999885;28;20526;-52
2021/12/15 12:46:07;;;;;;;7.93;6.40;;;10.30;99.90;;;;;;4997646;28;20930;-52
2021/12/15 12:48:56;;;;;;;10.03;6.77;;;10.50;99.90;;;;;;5000124;28;20436;-51
2021/12/15 13:00:07;;;;;;;7.00;5.90;;;10.50;99.90;;;;;;4998729;28;20532;-53
2021/12/15 13:05:05;;;;;;;8.17;5.17;;;10.60;99.90;;;;;;4997432;28;20987;-51
2021/12/15 13:07:54;;;;;;;7.00;4.73;;;10.50;99.90;;;;;;5000177;28;20515;-51
2021/12/15 13:10:21;;;;;;;8.30;5.80;;;10.40;99.90;;;;;;4993755;28;20470;-52
2021/12/15 13:12:48;;;;;;;7.30;4.57;;;10.40;99.90;;;;;;4999306;28;20479;-54
2021/12/15 13:15:21;;;;;;;7.30;5.83;;;10.50;99.90;;;;;;5014481;28;21028;-50
2021/12/15 13:17:59;;;;;;;8.70;6.10;;;10.50;99.90;;;;;;4993531;28;20483;-52
2021/12/15 13:20:30;;;;;;;7.57;5.20;;;10.50;99.90;;;;;;4996088;28;20471;-51
2021/12/15 13:23:30;;;;;;;8.23;6.20;;;10.50;99.90;;;;;;4996405;28;20636;-54
2021/12/15 13:28:45;;;;;;;8.83;5.70;;;10.40;99.90;;;;;;4996572;28;20567;-53
2021/12/15 13:31:16;;;;;;;5.97;5.27;;;10.30;99.90;;;;;;4999384;28;20427;-52
2021/12/15 13:34:01;;;;;;;6.30;5.00;;;10.30;99.90;;;;;;4997300;28;20475;-53
2021/12/15 13:36:32;;;;;;;7.27;5.50;;;10.30;99.90;;;;;;5001583;28;20432;-51
2021/12/15 13:39:05;;;;;;;5.93;4.97;;;10.40;99.90;;;;;;4999187;28;20420;-54
2021/12/15 13:41:41;;;;;;;5.53;4.70;;;10.50;99.90;;;;;;4997602;28;21255;-54
2021/12/15 13:44:37;;;;;;;6.70;5.20;;;10.50;99.90;;;;;;4999006;28;21208;-55
2021/12/15 13:47:09;;;;;;;6.03;4.80;;;10.60;99.90;;;;;;5001219;28;20420;-49
2021/12/15 13:49:43;;;;;;;6.43;5.00;;;10.40;99.90;;;;;;4993815;28;20807;-53
2021/12/15 13:52:21;;;;;;;5.50;4.10;;;10.40;99.90;;;;;;4996994;28;20455;-52
2021/12/15 13:54:49;;;;;;;7.30;4.73;;;10.40;99.90;;;;;;4998091;28;20463;-52
2021/12/15 13:57:18;;;;;;;5.63;4.47;;;10.30;99.90;;;;;;4989425;28;20447;-51
2021/12/15 14:00:10;;;;;;;5.67;4.30;;;10.40;99.90;;;;;;4991503;28;20444;-51
2021/12/15 14:02:52;;;;;;;6.07;4.93;;;10.40;99.90;;;;;;4993057;28;20542;-49
2021/12/15 14:05:17;;;;;;;4.93;4.43;;;10.30;99.90;;;;;;4994759;28;20450;-49
2021/12/15 14:07:46;;;;;;;5.00;4.43;;;10.30;99.90;;;;;;4997950;28;20703;-52
2021/12/15 14:10:12;;;;;;;8.20;5.23;;;10.40;99.90;;;;;;4994418;28;20189;-53
2021/12/15 14:12:47;;;;;;;8.23;5.27;;;10.40;99.90;;;;;;4989852;28;21175;-53